KEVB/EVB METAR and TAF weather

Enter ICAO airport designator
Station Type Date Time Source
KEVB METAR 2018/12/11 22:47 UTC NOAA

KEVB 112247Z 31005KT 10SM CLR 09/04 A3028


Station Type Date Time Source
KEVB Decoded METAR 2018/12/11 22:47 UTC NOAA

New Smyrna Beach, New Smyrna Beach Municipal Airport, FL, United States (KEVB) 29-03-20N 080-56-54W
Dec 11, 2018 - 05:47 PM EST / 2018.12.11 2247 UTC
Wind: from the NW (310 degrees) at 6 MPH (5 KT):0
Visibility: 10 mile(s):0
Sky conditions: clear
Temperature: 48 F (9 C)
Dew Point: 39 F (4 C)
Relative Humidity: 70%
Pressure (altimeter): 30.28 in. Hg (1025 hPa)
ob: KEVB 112247Z 31005KT 10SM CLR 09/04 A3028
cycle: 23

Station Type Date Time Source
KEVB TAF UTC NOAA

Error!


Example: see airport list